sensor_id;sensor_type;location;lat;lon;timestamp;noise_LAeq;noise_LA_min;noise_LA_max;noise_LA01;noise_LA95
66888;Laerm;67239;51.680;5.976;2023-04-01T00:00:48;46.05;40.78;62.88;;
66888;Laerm;67239;51.680;5.976;2023-04-01T00:03:15;59.04;40.25;76.71;;
66888;Laerm;67239;51.680;5.976;2023-04-01T00:05:43;62.15;40.45;78.94;;
66888;Laerm;67239;51.680;5.976;2023-04-01T00:08:11;48.24;40.24;65.00;;
66888;Laerm;67239;51.680;5.976;2023-04-01T00:10:39;64.21;40.66;82.61;;
66888;Laerm;67239;51.680;5.976;2023-04-01T00:13:06;43.90;39.76;55.77;;
66888;Laerm;67239;51.680;5.976;2023-04-01T00:15:34;43.33;38.87;53.32;;
66888;Laerm;67239;51.680;5.976;2023-04-01T00:18:01;58.17;39.49;75.92;;
66888;Laerm;67239;51.680;5.976;2023-04-01T00:20:29;45.54;40.16;63.77;;
66888;Laerm;67239;51.680;5.976;2023-04-01T00:22:56;43.65;39.26;58.94;;
66888;Laerm;67239;51.680;5.976;2023-04-01T00:25:24;44.10;38.88;55.43;;
66888;Laerm;67239;51.680;5.976;2023-04-01T00:27:51;44.26;39.42;58.36;;
66888;Laerm;67239;51.680;5.976;2023-04-01T00:30:18;60.04;38.94;79.62;;
66888;Laerm;67239;51.680;5.976;2023-04-01T00:32:45;43.16;38.06;58.70;;
66888;Laerm;67239;51.680;5.976;2023-04-01T00:35:13;44.17;38.59;58.15;;
66888;Laerm;67239;51.680;5.976;2023-04-01T00:37:40;43.86;38.81;59.87;;
66888;Laerm;67239;51.680;5.976;2023-04-01T00:40:24;44.86;39.23;64.61;;
66888;Laerm;67239;51.680;5.976;2023-04-01T00:42:51;43.54;40.18;63.37;;
66888;Laerm;67239;51.680;5.976;2023-04-01T00:48:05;49.55;40.75;70.12;;
66888;Laerm;67239;51.680;5.976;2023-04-01T00:50:35;45.75;39.52;68.55;;
66888;Laerm;67239;51.680;5.976;2023-04-01T00:53:06;44.07;39.90;68.30;;
66888;Laerm;67239;51.680;5.976;2023-04-01T00:55:42;45.62;41.62;63.57;;
66888;Laerm;67239;51.680;5.976;2023-04-01T00:58:16;45.65;41.85;62.48;;
66888;Laerm;67239;51.680;5.976;2023-04-01T01:00:47;47.99;41.48;69.99;;
66888;Laerm;67239;51.680;5.976;2023-04-01T01:03:15;44.69;39.46;68.29;;
66888;Laerm;67239;51.680;5.976;2023-04-01T01:06:15;44.57;39.68;65.47;;
66888;Laerm;67239;51.680;5.976;2023-04-01T01:09:08;43.17;38.51;60.57;;
66888;Laerm;67239;51.680;5.976;2023-04-01T01:11:50;44.44;39.68;60.10;;
66888;Laerm;67239;51.680;5.976;2023-04-01T01:14:48;43.90;40.22;62.02;;
66888;Laerm;67239;51.680;5.976;2023-04-01T01:27:12;61.58;40.03;78.78;;
66888;Laerm;67239;51.680;5.976;2023-04-01T01:33:24;65.11;39.00;86.16;;
66888;Laerm;67239;51.680;5.976;2023-04-01T01:35:59;58.68;40.05;76.95;;
66888;Laerm;67239;51.680;5.976;2023-04-01T01:38:34;44.19;39.93;64.97;;
66888;Laerm;67239;51.680;5.976;2023-04-01T01:41:07;65.55;41.25;84.61;;
66888;Laerm;67239;51.680;5.976;2023-04-01T01:43:44;45.06;38.03;64.26;;
66888;Laerm;67239;51.680;5.976;2023-04-01T01:46:21;46.25;37.25;64.18;;
66888;Laerm;67239;51.680;5.976;2023-04-01T01:48:51;63.83;37.49;81.24;;
66888;Laerm;67239;51.680;5.976;2023-04-01T01:51:21;41.97;37.71;54.00;;
66888;Laerm;67239;51.680;5.976;2023-04-01T01:53:49;44.59;39.73;66.98;;
66888;Laerm;67239;51.680;5.976;2023-04-01T01:56:23;42.99;38.90;53.09;;
66888;Laerm;67239;51.680;5.976;2023-04-01T01:59:02;43.43;38.68;58.51;;
66888;Laerm;67239;51.680;5.976;2023-04-01T02:01:35;47.02;39.14;65.87;;
66888;Laerm;67239;51.680;5.976;2023-04-01T02:04:13;45.79;38.60;62.81;;
66888;Laerm;67239;51.680;5.976;2023-04-01T02:06:50;47.28;39.35;65.07;;
66888;Laerm;67239;51.680;5.976;2023-04-01T02:09:20;44.14;39.15;58.66;;
66888;Laerm;67239;51.680;5.976;2023-04-01T02:11:53;45.90;39.33;63.74;;
66888;Laerm;67239;51.680;5.976;2023-04-01T02:14:26;59.35;39.56;77.38;;
66888;Laerm;67239;51.680;5.976;2023-04-01T02:17:02;46.90;38.70;65.51;;
66888;Laerm;67239;51.680;5.976;2023-04-01T02:19:38;43.57;38.57;59.16;;
66888;Laerm;67239;51.680;5.976;2023-04-01T02:22:15;56.72;38.18;74.83;;
66888;Laerm;67239;51.680;5.976;2023-04-01T02:24:44;45.12;38.58;64.82;;
66888;Laerm;67239;51.680;5.976;2023-04-01T02:27:12;62.41;38.68;81.41;;
66888;Laerm;67239;51.680;5.976;2023-04-01T02:29:39;44.34;38.98;63.99;;
66888;Laerm;67239;51.680;5.976;2023-04-01T02:32:09;46.09;38.61;63.82;;
66888;Laerm;67239;51.680;5.976;2023-04-01T02:34:36;44.25;38.43;59.61;;
66888;Laerm;67239;51.680;5.976;2023-04-01T02:37:04;45.52;38.22;63.95;;
66888;Laerm;67239;51.680;5.976;2023-04-01T02:39:31;43.72;38.69;61.50;;
66888;Laerm;67239;51.680;5.976;2023-04-01T02:41:59;44.41;39.36;60.76;;
66888;Laerm;67239;51.680;5.976;2023-04-01T02:44:28;44.02;40.48;59.07;;
66888;Laerm;67239;51.680;5.976;2023-04-01T02:46:55;65.06;41.36;81.24;;
66888;Laerm;67239;51.680;5.976;2023-04-01T02:49:22;44.82;39.41;63.29;;
66888;Laerm;67239;51.680;5.976;2023-04-01T02:51:49;44.99;39.14;65.25;;
66888;Laerm;67239;51.680;5.976;2023-04-01T02:54:19;45.26;39.09;62.03;;
66888;Laerm;67239;51.680;5.976;2023-04-01T02:56:46;52.43;38.54;78.75;;
66888;Laerm;67239;51.680;5.976;2023-04-01T02:59:13;45.47;38.53;61.24;;
66888;Laerm;67239;51.680;5.976;2023-04-01T03:01:41;50.10;38.48;68.64;;
66888;Laerm;67239;51.680;5.976;2023-04-01T03:04:08;66.09;39.24;83.60;;
66888;Laerm;67239;51.680;5.976;2023-04-01T03:06:35;63.79;39.44;81.70;;
66888;Laerm;67239;51.680;5.976;2023-04-01T03:09:02;46.25;39.85;61.64;;
66888;Laerm;67239;51.680;5.976;2023-04-01T03:11:30;45.48;40.28;69.66;;
66888;Laerm;67239;51.680;5.976;2023-04-01T03:13:57;62.33;41.63;80.51;;
66888;Laerm;67239;51.680;5.976;2023-04-01T03:16:24;44.37;39.62;61.62;;
66888;Laerm;67239;51.680;5.976;2023-04-01T03:18:51;65.32;39.93;82.16;;
66888;Laerm;67239;51.680;5.976;2023-04-01T03:21:23;62.42;40.60;77.47;;
66888;Laerm;67239;51.680;5.976;2023-04-01T03:23:50;65.26;38.98;85.60;;
66888;Laerm;67239;51.680;5.976;2023-04-01T03:26:18;65.18;38.87;83.34;;
66888;Laerm;67239;51.680;5.976;2023-04-01T03:28:45;42.99;38.00;61.05;;
66888;Laerm;67239;51.680;5.976;2023-04-01T03:31:12;58.01;38.97;75.56;;
66888;Laerm;67239;51.680;5.976;2023-04-01T03:33:46;62.42;38.82;78.07;;
66888;Laerm;67239;51.680;5.976;2023-04-01T03:36:14;68.49;39.84;82.64;;
66888;Laerm;67239;51.680;5.976;2023-04-01T03:38:43;61.47;40.29;77.90;;
66888;Laerm;67239;51.680;5.976;2023-04-01T03:41:15;60.96;40.21;75.13;;
66888;Laerm;67239;51.680;5.976;2023-04-01T03:43:43;63.85;39.98;78.35;;
66888;Laerm;67239;51.680;5.976;2023-04-01T03:46:17;69.08;39.12;84.06;;
66888;Laerm;67239;51.680;5.976;2023-04-01T03:48:44;65.17;39.76;80.07;;
66888;Laerm;67239;51.680;5.976;2023-04-01T03:51:11;65.08;37.47;83.02;;
66888;Laerm;67239;51.680;5.976;2023-04-01T03:53:38;67.07;39.87;84.34;;
66888;Laerm;67239;51.680;5.976;2023-04-01T03:56:07;66.70;39.93;83.88;;
66888;Laerm;67239;51.680;5.976;2023-04-01T03:58:37;64.18;40.18;82.82;;
66888;Laerm;67239;51.680;5.976;2023-04-01T04:01:22;66.18;38.82;83.67;;
66888;Laerm;67239;51.680;5.976;2023-04-01T04:03:52;70.49;41.89;82.81;;
66888;Laerm;67239;51.680;5.976;2023-04-01T04:06:23;69.39;41.20;82.52;;
66888;Laerm;67239;51.680;5.976;2023-04-01T04:08:51;65.63;41.55;81.60;;
66888;Laerm;67239;51.680;5.976;2023-04-01T04:11:20;65.38;41.19;81.89;;
66888;Laerm;67239;51.680;5.976;2023-04-01T04:14:10;52.84;41.79;66.47;;
66888;Laerm;67239;51.680;5.976;2023-04-01T04:16:57;63.25;40.82;79.07;;
66888;Laerm;67239;51.680;5.976;2023-04-01T04:19:43;67.84;41.89;84.15;;
66888;Laerm;67239;51.680;5.976;2023-04-01T04:22:31;59.30;40.86;77.43;;
66888;Laerm;67239;51.680;5.976;2023-04-01T04:25:18;60.05;42.79;78.71;;
66888;Laerm;67239;51.680;5.976;2023-04-01T04:28:05;58.45;42.07;77.66;;
66888;Laerm;67239;51.680;5.976;2023-04-01T04:30:54;58.06;41.63;73.53;;
66888;Laerm;67239;51.680;5.976;2023-04-01T04:33:41;62.28;41.03;78.95;;
66888;Laerm;67239;51.680;5.976;2023-04-01T04:36:27;64.81;43.08;82.41;;
66888;Laerm;67239;51.680;5.976;2023-04-01T04:39:15;54.17;43.38;69.87;;
66888;Laerm;67239;51.680;5.976;2023-04-01T04:42:03;54.92;45.49;73.35;;
66888;Laerm;67239;51.680;5.976;2023-04-01T04:44:30;69.86;44.43;85.63;;
66888;Laerm;67239;51.680;5.976;2023-04-01T04:46:59;68.29;45.85;86.58;;
66888;Laerm;67239;51.680;5.976;2023-04-01T04:49:27;69.87;45.28;82.78;;
66888;Laerm;67239;51.680;5.976;2023-04-01T04:51:54;65.75;41.97;79.89;;
66888;Laerm;67239;51.680;5.976;2023-04-01T04:54:24;63.86;42.58;79.86;;
66888;Laerm;67239;51.680;5.976;2023-04-01T04:56:55;63.58;41.90;80.16;;
66888;Laerm;67239;51.680;5.976;2023-04-01T04:59:23;49.31;41.95;59.80;;
66888;Laerm;67239;51.680;5.976;2023-04-01T05:01:58;65.12;41.83;82.16;;
66888;Laerm;67239;51.680;5.976;2023-04-01T05:04:26;64.85;42.91;81.02;;
66888;Laerm;67239;51.680;5.976;2023-04-01T05:06:53;60.35;44.08;77.96;;
66888;Laerm;67239;51.680;5.976;2023-04-01T05:09:20;51.46;42.23;67.83;;
66888;Laerm;67239;51.680;5.976;2023-04-01T05:11:47;62.24;41.07;79.93;;
66888;Laerm;67239;51.680;5.976;2023-04-01T05:14:17;62.93;40.34;80.46;;
66888;Laerm;67239;51.680;5.976;2023-04-01T05:16:53;57.40;41.78;74.36;;
66888;Laerm;67239;51.680;5.976;2023-04-01T05:19:21;68.70;42.79;83.94;;
66888;Laerm;67239;51.680;5.976;2023-04-01T05:21:48;60.75;43.52;76.19;;
66888;Laerm;67239;51.680;5.976;2023-04-01T05:24:15;67.74;41.46;84.57;;
66888;Laerm;67239;51.680;5.976;2023-04-01T05:26:43;59.14;43.11;73.87;;
66888;Laerm;67239;51.680;5.976;2023-04-01T05:29:11;64.82;43.34;78.44;;
66888;Laerm;67239;51.680;5.976;2023-04-01T05:31:39;66.33;42.36;83.54;;
66888;Laerm;67239;51.680;5.976;2023-04-01T05:34:06;66.77;43.10;82.26;;
66888;Laerm;67239;51.680;5.976;2023-04-01T05:36:33;65.61;42.93;81.88;;
66888;Laerm;67239;51.680;5.976;2023-04-01T05:39:01;65.00;43.87;83.39;;
66888;Laerm;67239;51.680;5.976;2023-04-01T05:41:28;68.63;42.67;86.15;;
66888;Laerm;67239;51.680;5.976;2023-04-01T05:43:55;65.21;44.37;79.46;;
66888;Laerm;67239;51.680;5.976;2023-04-01T05:46:43;62.09;44.21;78.16;;
66888;Laerm;67239;51.680;5.976;2023-04-01T05:49:25;67.70;44.34;82.11;;
66888;Laerm;67239;51.680;5.976;2023-04-01T05:51:56;67.76;48.28;79.54;;
66888;Laerm;67239;51.680;5.976;2023-04-01T05:54:23;65.83;46.05;81.04;;
66888;Laerm;67239;51.680;5.976;2023-04-01T05:56:50;67.77;43.48;81.55;;
66888;Laerm;67239;51.680;5.976;2023-04-01T05:59:19;66.08;43.72;79.17;;
66888;Laerm;67239;51.680;5.976;2023-04-01T06:01:47;66.44;42.65;82.70;;
66888;Laerm;67239;51.680;5.976;2023-04-01T06:04:17;69.75;42.93;82.27;;
66888;Laerm;67239;51.680;5.976;2023-04-01T06:06:45;67.73;46.77;80.57;;
66888;Laerm;67239;51.680;5.976;2023-04-01T06:09:19;71.53;44.83;83.99;;
66888;Laerm;67239;51.680;5.976;2023-04-01T06:18:39;65.82;43.77;79.30;;
66888;Laerm;67239;51.680;5.976;2023-04-01T06:21:41;66.93;45.42;80.06;;
66888;Laerm;67239;51.680;5.976;2023-04-01T06:24:36;69.06;42.14;83.30;;
66888;Laerm;67239;51.680;5.976;2023-04-01T06:27:36;64.78;41.64;78.66;;
66888;Laerm;67239;51.680;5.976;2023-04-01T06:36:22;69.91;44.49;83.08;;
66888;Laerm;67239;51.680;5.976;2023-04-01T06:42:40;64.36;41.06;79.65;;
66888;Laerm;67239;51.680;5.976;2023-04-01T06:45:50;68.51;44.51;82.11;;
66888;Laerm;67239;51.680;5.976;2023-04-01T06:49:02;70.09;47.04;82.19;;
66888;Laerm;67239;51.680;5.976;2023-04-01T06:52:19;70.61;43.42;86.53;;
66888;Laerm;67239;51.680;5.976;2023-04-01T06:55:29;68.51;46.31;83.19;;
66888;Laerm;67239;51.680;5.976;2023-04-01T06:58:29;68.86;42.29;83.67;;
66888;Laerm;67239;51.680;5.976;2023-04-01T07:01:00;66.31;42.41;80.94;;
66888;Laerm;67239;51.680;5.976;2023-04-01T07:03:33;67.05;43.52;80.27;;
66888;Laerm;67239;51.680;5.976;2023-04-01T07:06:12;66.26;43.44;79.29;;
66888;Laerm;67239;51.680;5.976;2023-04-01T07:08:52;71.86;48.80;84.46;;
66888;Laerm;67239;51.680;5.976;2023-04-01T07:11:31;64.60;42.34;78.86;;
66888;Laerm;67239;51.680;5.976;2023-04-01T07:14:26;66.36;41.22;83.41;;
66888;Laerm;67239;51.680;5.976;2023-04-01T07:17:07;68.25;41.19;84.86;;
66888;Laerm;67239;51.680;5.976;2023-04-01T07:19:44;69.87;45.19;82.45;;
66888;Laerm;67239;51.680;5.976;2023-04-01T07:22:39;65.80;41.39;81.21;;
66888;Laerm;67239;51.680;5.976;2023-04-01T07:25:46;68.54;41.56;81.35;;
66888;Laerm;67239;51.680;5.976;2023-04-01T07:28:43;70.06;45.69;83.48;;
66888;Laerm;67239;51.680;5.976;2023-04-01T07:35:13;69.39;45.44;81.83;;
66888;Laerm;67239;51.680;5.976;2023-04-01T07:41:12;69.80;45.08;83.27;;
66888;Laerm;67239;51.680;5.976;2023-04-01T07:47:05;69.68;48.68;81.16;;
66888;Laerm;67239;51.680;5.976;2023-04-01T07:50:01;67.90;44.58;80.35;;
66888;Laerm;67239;51.680;5.976;2023-04-01T07:55:20;67.80;44.37;82.25;;
66888;Laerm;67239;51.680;5.976;2023-04-01T08:04:34;69.10;45.31;82.93;;
66888;Laerm;67239;51.680;5.976;2023-04-01T08:10:52;69.78;47.86;81.63;;
66888;Laerm;67239;51.680;5.976;2023-04-01T08:14:21;66.49;46.80;81.11;;
66888;Laerm;67239;51.680;5.976;2023-04-01T08:17:53;70.96;46.05;86.41;;
66888;Laerm;67239;51.680;5.976;2023-04-01T08:20:37;69.81;47.31;82.14;;
66888;Laerm;67239;51.680;5.976;2023-04-01T08:23:27;68.84;46.67;81.94;;
66888;Laerm;67239;51.680;5.976;2023-04-01T08:26:19;69.62;48.40;81.98;;
66888;Laerm;67239;51.680;5.976;2023-04-01T08:29:16;70.25;44.51;81.35;;
66888;Laerm;67239;51.680;5.976;2023-04-01T08:31:55;68.73;45.59;78.94;;
66888;Laerm;67239;51.680;5.976;2023-04-01T08:34:32;73.30;49.48;83.52;;
66888;Laerm;67239;51.680;5.976;2023-04-01T08:37:15;69.46;44.58;82.30;;
66888;Laerm;67239;51.680;5.976;2023-04-01T08:40:05;69.19;45.85;83.18;;
66888;Laerm;67239;51.680;5.976;2023-04-01T08:43:36;70.19;47.38;84.19;;
66888;Laerm;67239;51.680;5.976;2023-04-01T08:45:59;72.08;50.23;82.03;;
66888;Laerm;67239;51.680;5.976;2023-04-01T08:49:13;68.64;44.69;82.15;;
66888;Laerm;67239;51.680;5.976;2023-04-01T08:52:07;68.80;47.40;80.56;;
66888;Laerm;67239;51.680;5.976;2023-04-01T08:55:15;69.30;47.39;81.02;;
66888;Laerm;67239;51.680;5.976;2023-04-01T08:58:36;70.71;53.68;80.39;;
66888;Laerm;67239;51.680;5.976;2023-04-01T09:10:58;69.25;46.78;82.09;;
66888;Laerm;67239;51.680;5.976;2023-04-01T09:19:58;70.91;53.12;86.36;;
66888;Laerm;67239;51.680;5.976;2023-04-01T09:28:42;72.33;49.97;82.87;;
66888;Laerm;67239;51.680;5.976;2023-04-01T09:31:43;71.21;50.61;82.94;;
66888;Laerm;67239;51.680;5.976;2023-04-01T09:34:54;70.81;46.81;82.90;;
66888;Laerm;67239;51.680;5.976;2023-04-01T09:40:48;69.70;47.22;82.95;;
66888;Laerm;67239;51.680;5.976;2023-04-01T09:44:01;70.21;48.35;83.17;;
66888;Laerm;67239;51.680;5.976;2023-04-01T09:50:00;72.26;56.43;82.79;;
66888;Laerm;67239;51.680;5.976;2023-04-01T09:53:07;70.28;45.90;83.85;;
66888;Laerm;67239;51.680;5.976;2023-04-01T10:24:25;70.38;48.70;83.04;;
66888;Laerm;67239;51.680;5.976;2023-04-01T10:40:07;68.85;44.92;80.84;;
66888;Laerm;67239;51.680;5.976;2023-04-01T10:47:03;69.06;48.20;83.44;;
66888;Laerm;67239;51.680;5.976;2023-04-01T11:23:58;73.57;46.96;93.07;;
66888;Laerm;67239;51.680;5.976;2023-04-01T11:26:52;69.88;41.68;81.03;;
66888;Laerm;67239;51.680;5.976;2023-04-01T11:41:43;71.25;46.67;82.36;;
66888;Laerm;67239;51.680;5.976;2023-04-01T11:44:34;70.43;43.94;83.23;;
66888;Laerm;67239;51.680;5.976;2023-04-01T11:54:09;69.59;43.49;82.32;;
66888;Laerm;67239;51.680;5.976;2023-04-01T11:56:55;71.44;43.66;84.38;;
66888;Laerm;67239;51.680;5.976;2023-04-01T11:59:50;71.80;49.91;83.97;;
66888;Laerm;67239;51.680;5.976;2023-04-01T12:06:01;73.68;47.65;86.40;;
66888;Laerm;67239;51.680;5.976;2023-04-01T12:08:42;70.73;46.10;84.88;;
66888;Laerm;67239;51.680;5.976;2023-04-01T12:14:11;70.26;44.18;84.69;;
66888;Laerm;67239;51.680;5.976;2023-04-01T12:16:59;69.54;44.16;84.22;;
66888;Laerm;67239;51.680;5.976;2023-04-01T12:22:47;68.98;43.42;85.04;;
66888;Laerm;67239;51.680;5.976;2023-04-01T12:31:34;68.38;44.38;80.11;;
66888;Laerm;67239;51.680;5.976;2023-04-01T12:37:35;71.51;47.72;83.47;;
66888;Laerm;67239;51.680;5.976;2023-04-01T12:46:05;69.98;46.69;81.49;;
66888;Laerm;67239;51.680;5.976;2023-04-01T12:52:03;68.60;44.74;82.13;;
66888;Laerm;67239;51.680;5.976;2023-04-01T13:01:09;70.26;50.31;82.20;;
66888;Laerm;67239;51.680;5.976;2023-04-01T13:04:25;66.91;43.01;81.33;;
66888;Laerm;67239;51.680;5.976;2023-04-01T13:10:13;66.73;42.21;79.74;;
66888;Laerm;67239;51.680;5.976;2023-04-01T13:19:03;70.27;46.92;83.62;;
66888;Laerm;67239;51.680;5.976;2023-04-01T13:24:51;70.70;44.94;85.13;;
66888;Laerm;67239;51.680;5.976;2023-04-01T13:27:37;68.46;42.07;80.64;;
66888;Laerm;67239;51.680;5.976;2023-04-01T13:33:26;70.08;41.84;82.61;;
66888;Laerm;67239;51.680;5.976;2023-04-01T13:39:23;68.29;43.45;79.56;;
66888;Laerm;67239;51.680;5.976;2023-04-01T13:42:16;67.20;43.07;79.84;;
66888;Laerm;67239;51.680;5.976;2023-04-01T13:45:15;69.05;41.03;81.52;;
66888;Laerm;67239;51.680;5.976;2023-04-01T13:54:13;69.49;45.83;84.32;;
66888;Laerm;67239;51.680;5.976;2023-04-01T14:02:57;69.11;44.82;82.93;;
66888;Laerm;67239;51.680;5.976;2023-04-01T14:31:48;70.19;48.73;82.48;;
66888;Laerm;67239;51.680;5.976;2023-04-01T14:40:50;69.95;47.98;85.68;;
66888;Laerm;67239;51.680;5.976;2023-04-01T14:49:32;68.84;43.20;84.15;;
66888;Laerm;67239;51.680;5.976;2023-04-01T14:54:43;68.97;42.36;81.94;;
66888;Laerm;67239;51.680;5.976;2023-04-01T14:57:13;69.13;43.34;83.42;;
66888;Laerm;67239;51.680;5.976;2023-04-01T15:00:13;68.93;41.12;83.09;;
66888;Laerm;67239;51.680;5.976;2023-04-01T15:03:03;69.88;40.60;82.34;;
66888;Laerm;67239;51.680;5.976;2023-04-01T15:06:14;67.79;43.58;81.28;;
66888;Laerm;67239;51.680;5.976;2023-04-01T15:12:01;69.85;44.28;85.13;;
66888;Laerm;67239;51.680;5.976;2023-04-01T15:20:35;70.65;43.27;81.74;;
66888;Laerm;67239;51.680;5.976;2023-04-01T15:32:24;69.79;43.05;84.19;;
66888;Laerm;67239;51.680;5.976;2023-04-01T15:35:32;67.97;43.50;84.79;;
66888;Laerm;67239;51.680;5.976;2023-04-01T15:38:14;68.59;46.28;81.85;;
66888;Laerm;67239;51.680;5.976;2023-04-01T15:41:11;70.00;44.45;84.51;;
66888;Laerm;67239;51.680;5.976;2023-04-01T15:43:45;65.74;46.47;79.15;;
66888;Laerm;67239;51.680;5.976;2023-04-01T15:49:36;65.48;47.74;80.08;;
66888;Laerm;67239;51.680;5.976;2023-04-01T15:55:15;69.81;48.91;81.96;;
66888;Laerm;67239;51.680;5.976;2023-04-01T16:00:49;66.09;48.55;81.14;;
66888;Laerm;67239;51.680;5.976;2023-04-01T16:03:37;70.10;50.08;84.45;;
66888;Laerm;67239;51.680;5.976;2023-04-01T16:06:47;68.60;42.84;82.78;;
66888;Laerm;67239;51.680;5.976;2023-04-01T16:09:56;68.01;42.58;80.09;;
66888;Laerm;67239;51.680;5.976;2023-04-01T16:18:50;67.55;40.66;83.88;;
66888;Laerm;67239;51.680;5.976;2023-04-01T16:24:19;69.43;44.70;81.21;;
66888;Laerm;67239;51.680;5.976;2023-04-01T16:27:24;70.12;44.30;84.07;;
66888;Laerm;67239;51.680;5.976;2023-04-01T16:32:58;70.46;45.51;84.38;;
66888;Laerm;67239;51.680;5.976;2023-04-01T16:35:58;67.78;39.99;82.82;;
66888;Laerm;67239;51.680;5.976;2023-04-01T16:41:20;65.41;40.89;77.64;;
66888;Laerm;67239;51.680;5.976;2023-04-01T16:43:56;63.44;42.59;80.25;;
66888;Laerm;67239;51.680;5.976;2023-04-01T16:46:41;63.63;45.08;79.56;;
66888;Laerm;67239;51.680;5.976;2023-04-01T16:49:36;69.03;45.61;84.41;;
66888;Laerm;67239;51.680;5.976;2023-04-01T16:54:53;68.40;48.90;82.00;;
66888;Laerm;67239;51.680;5.976;2023-04-01T16:57:57;69.60;50.49;81.91;;
66888;Laerm;67239;51.680;5.976;2023-04-01T17:00:36;66.86;47.08;82.17;;
66888;Laerm;67239;51.680;5.976;2023-04-01T17:06:08;69.74;45.84;81.35;;
66888;Laerm;67239;51.680;5.976;2023-04-01T17:09:07;68.57;43.27;80.94;;
66888;Laerm;67239;51.680;5.976;2023-04-01T17:11:55;64.71;44.66;82.36;;
66888;Laerm;67239;51.680;5.976;2023-04-01T17:18:09;64.23;41.71;79.35;;
66888;Laerm;67239;51.680;5.976;2023-04-01T17:20:50;69.05;44.80;86.30;;
66888;Laerm;67239;51.680;5.976;2023-04-01T17:23:42;63.95;42.62;80.16;;
66888;Laerm;67239;51.680;5.976;2023-04-01T17:26:35;67.28;41.70;79.74;;
66888;Laerm;67239;51.680;5.976;2023-04-01T17:29:34;67.44;41.85;83.11;;
66888;Laerm;67239;51.680;5.976;2023-04-01T17:32:12;70.55;44.89;82.97;;
66888;Laerm;67239;51.680;5.976;2023-04-01T17:35:49;68.17;41.42;82.86;;
66888;Laerm;67239;51.680;5.976;2023-04-01T17:41:16;67.97;45.99;81.63;;
66888;Laerm;67239;51.680;5.976;2023-04-01T17:44:15;65.59;44.07;81.10;;
66888;Laerm;67239;51.680;5.976;2023-04-01T17:47:07;66.11;42.17;82.66;;
66888;Laerm;67239;51.680;5.976;2023-04-01T17:56:02;60.94;40.38;80.63;;
66888;Laerm;67239;51.680;5.976;2023-04-01T18:01:47;68.32;41.82;85.47;;
66888;Laerm;67239;51.680;5.976;2023-04-01T18:10:17;65.82;39.24;83.02;;
66888;Laerm;67239;51.680;5.976;2023-04-01T18:13:44;67.89;40.65;84.37;;
66888;Laerm;67239;51.680;5.976;2023-04-01T18:16:33;69.34;44.24;85.50;;
66888;Laerm;67239;51.680;5.976;2023-04-01T18:22:19;64.68;40.63;84.50;;
66888;Laerm;67239;51.680;5.976;2023-04-01T18:25:17;64.94;39.71;81.52;;
66888;Laerm;67239;51.680;5.976;2023-04-01T18:27:53;65.69;42.83;80.68;;
66888;Laerm;67239;51.680;5.976;2023-04-01T18:30:29;66.43;40.26;83.57;;
66888;Laerm;67239;51.680;5.976;2023-04-01T18:33:26;67.03;37.21;82.89;;
66888;Laerm;67239;51.680;5.976;2023-04-01T18:39:15;64.08;39.39;78.94;;
66888;Laerm;67239;51.680;5.976;2023-04-01T18:44:57;67.69;40.02;80.19;;
66888;Laerm;67239;51.680;5.976;2023-04-01T18:47:55;63.06;39.91;80.10;;
66888;Laerm;67239;51.680;5.976;2023-04-01T18:50:54;61.35;38.70;78.70;;
66888;Laerm;67239;51.680;5.976;2023-04-01T18:53:35;65.27;40.79;81.17;;
66888;Laerm;67239;51.680;5.976;2023-04-01T18:56:09;65.95;41.25;83.33;;
66888;Laerm;67239;51.680;5.976;2023-04-01T19:04:46;63.73;40.01;80.45;;
66888;Laerm;67239;51.680;5.976;2023-04-01T19:07:46;63.96;42.19;77.89;;
66888;Laerm;67239;51.680;5.976;2023-04-01T19:13:35;61.90;38.89;77.06;;
66888;Laerm;67239;51.680;5.976;2023-04-01T19:22:08;61.04;35.95;75.65;;
66888;Laerm;67239;51.680;5.976;2023-04-01T19:27:50;66.99;40.81;80.52;;
66888;Laerm;67239;51.680;5.976;2023-04-01T19:30:42;61.68;35.96;77.65;;
66888;Laerm;67239;51.680;5.976;2023-04-01T19:33:32;64.61;39.28;80.32;;
66888;Laerm;67239;51.680;5.976;2023-04-01T19:39:41;66.74;41.30;79.12;;
66888;Laerm;67239;51.680;5.976;2023-04-01T19:42:35;68.17;38.63;83.50;;
66888;Laerm;67239;51.680;5.976;2023-04-01T19:50:59;62.86;39.83;79.61;;
66888;Laerm;67239;51.680;5.976;2023-04-01T19:56:21;63.97;41.74;78.48;;
66888;Laerm;67239;51.680;5.976;2023-04-01T19:59:00;65.99;35.99;79.96;;
66888;Laerm;67239;51.680;5.976;2023-04-01T20:01:42;70.50;45.81;86.74;;
66888;Laerm;67239;51.680;5.976;2023-04-01T20:04:20;69.15;37.71;84.70;;
66888;Laerm;67239;51.680;5.976;2023-04-01T20:07:05;69.97;39.97;84.79;;
66888;Laerm;67239;51.680;5.976;2023-04-01T20:09:55;64.28;38.53;77.46;;
66888;Laerm;67239;51.680;5.976;2023-04-01T20:15:35;65.02;37.46;84.16;;
66888;Laerm;67239;51.680;5.976;2023-04-01T20:18:35;68.34;41.30;82.76;;
66888;Laerm;67239;51.680;5.976;2023-04-01T20:21:30;58.79;36.03;76.78;;
66888;Laerm;67239;51.680;5.976;2023-04-01T20:24:16;60.60;37.66;78.81;;
66888;Laerm;67239;51.680;5.976;2023-04-01T20:27:00;64.71;36.72;84.92;;
66888;Laerm;67239;51.680;5.976;2023-04-01T20:35:30;67.21;34.74;81.99;;
66888;Laerm;67239;51.680;5.976;2023-04-01T20:41:04;66.02;37.53;82.84;;
66888;Laerm;67239;51.680;5.976;2023-04-01T20:44:04;63.82;36.77;80.13;;
66888;Laerm;67239;51.680;5.976;2023-04-01T20:46:51;59.60;37.84;75.34;;
66888;Laerm;67239;51.680;5.976;2023-04-01T20:52:56;66.49;39.54;80.97;;
66888;Laerm;67239;51.680;5.976;2023-04-01T20:59:07;59.72;35.33;79.11;;
66888;Laerm;67239;51.680;5.976;2023-04-01T21:02:16;61.73;35.58;77.64;;
66888;Laerm;67239;51.680;5.976;2023-04-01T21:08:02;61.41;38.09;76.23;;
66888;Laerm;67239;51.680;5.976;2023-04-01T21:10:54;57.04;34.86;75.31;;
66888;Laerm;67239;51.680;5.976;2023-04-01T21:17:02;54.42;34.37;73.86;;
66888;Laerm;67239;51.680;5.976;2023-04-01T21:22:57;58.44;37.20;77.44;;
66888;Laerm;67239;51.680;5.976;2023-04-01T21:25:40;60.67;36.58;80.85;;
66888;Laerm;67239;51.680;5.976;2023-04-01T21:28:28;66.15;35.94;85.02;;
66888;Laerm;67239;51.680;5.976;2023-04-01T21:31:18;57.92;34.12;76.66;;
66888;Laerm;67239;51.680;5.976;2023-04-01T21:34:07;41.21;33.80;62.26;;
66888;Laerm;67239;51.680;5.976;2023-04-01T21:37:26;61.95;35.85;73.50;;
66888;Laerm;67239;51.680;5.976;2023-04-01T21:46:16;62.44;35.74;78.79;;
66888;Laerm;67239;51.680;5.976;2023-04-01T21:55:16;62.58;36.12;79.28;;
66888;Laerm;67239;51.680;5.976;2023-04-01T22:01:21;68.17;37.41;83.07;;
66888;Laerm;67239;51.680;5.976;2023-04-01T22:07:17;55.77;39.41;72.15;;
66888;Laerm;67239;51.680;5.976;2023-04-01T22:12:50;66.11;37.91;83.99;;
66888;Laerm;67239;51.680;5.976;2023-04-01T22:16:06;61.70;34.11;80.73;;
66888;Laerm;67239;51.680;5.976;2023-04-01T22:21:58;63.70;32.24;79.34;;
66888;Laerm;67239;51.680;5.976;2023-04-01T22:25:00;59.15;32.20;78.04;;
66888;Laerm;67239;51.680;5.976;2023-04-01T22:27:49;64.56;33.29;81.54;;
66888;Laerm;67239;51.680;5.976;2023-04-01T22:30:29;63.25;32.33;80.98;;
66888;Laerm;67239;51.680;5.976;2023-04-01T22:36:39;60.80;34.84;80.30;;
66888;Laerm;67239;51.680;5.976;2023-04-01T22:42:41;62.45;36.01;77.32;;